sensor_id;sensor_type;location;lat;lon;timestamp;P1;durP1;ratioP1;P2;durP2;ratioP2
9657;SDS011;4867;48.112;11.622;2022-12-18T00:01:39;50.17;;;27.57;;
9657;SDS011;4867;48.112;11.622;2022-12-18T00:04:07;46.57;;;28.97;;
9657;SDS011;4867;48.112;11.622;2022-12-18T00:06:45;47.63;;;29.33;;
9657;SDS011;4867;48.112;11.622;2022-12-18T00:09:14;51.37;;;30.80;;
9657;SDS011;4867;48.112;11.622;2022-12-18T00:11:41;44.93;;;28.37;;
9657;SDS011;4867;48.112;11.622;2022-12-18T00:14:09;53.90;;;29.13;;
9657;SDS011;4867;48.112;11.622;2022-12-18T00:16:38;51.27;;;29.70;;
9657;SDS011;4867;48.112;11.622;2022-12-18T00:19:05;50.07;;;31.00;;
9657;SDS011;4867;48.112;11.622;2022-12-18T00:21:34;48.43;;;28.97;;
9657;SDS011;4867;48.112;11.622;2022-12-18T00:24:01;53.80;;;31.67;;
9657;SDS011;4867;48.112;11.622;2022-12-18T00:26:30;54.57;;;32.37;;
9657;SDS011;4867;48.112;11.622;2022-12-18T00:29:02;51.43;;;30.57;;
9657;SDS011;4867;48.112;11.622;2022-12-18T00:31:43;50.13;;;30.03;;
9657;SDS011;4867;48.112;11.622;2022-12-18T00:34:11;50.57;;;30.60;;
9657;SDS011;4867;48.112;11.622;2022-12-18T00:36:39;54.67;;;30.87;;
9657;SDS011;4867;48.112;11.622;2022-12-18T00:39:08;56.50;;;30.43;;
9657;SDS011;4867;48.112;11.622;2022-12-18T00:41:37;46.83;;;28.37;;
9657;SDS011;4867;48.112;11.622;2022-12-18T00:44:24;49.20;;;29.17;;
9657;SDS011;4867;48.112;11.622;2022-12-18T00:46:51;52.67;;;29.33;;
9657;SDS011;4867;48.112;11.622;2022-12-18T00:49:19;52.03;;;29.10;;
9657;SDS011;4867;48.112;11.622;2022-12-18T00:51:47;53.23;;;29.83;;
9657;SDS011;4867;48.112;11.622;2022-12-18T00:54:15;58.87;;;29.90;;
9657;SDS011;4867;48.112;11.622;2022-12-18T00:56:43;53.67;;;29.23;;
9657;SDS011;4867;48.112;11.622;2022-12-18T00:59:18;52.83;;;30.30;;
9657;SDS011;4867;48.112;11.622;2022-12-18T01:01:46;48.37;;;28.87;;
9657;SDS011;4867;48.112;11.622;2022-12-18T01:04:14;48.50;;;29.70;;
9657;SDS011;4867;48.112;11.622;2022-12-18T01:06:44;48.57;;;28.63;;
9657;SDS011;4867;48.112;11.622;2022-12-18T01:09:12;46.20;;;28.20;;
9657;SDS011;4867;48.112;11.622;2022-12-18T01:11:39;49.63;;;29.73;;
9657;SDS011;4867;48.112;11.622;2022-12-18T01:14:07;47.57;;;28.27;;
9657;SDS011;4867;48.112;11.622;2022-12-18T01:16:36;51.67;;;29.10;;
9657;SDS011;4867;48.112;11.622;2022-12-18T01:19:04;52.40;;;28.83;;
9657;SDS011;4867;48.112;11.622;2022-12-18T01:21:31;47.70;;;28.93;;
9657;SDS011;4867;48.112;11.622;2022-12-18T01:24:03;49.87;;;29.13;;
9657;SDS011;4867;48.112;11.622;2022-12-18T01:26:31;50.63;;;30.30;;
9657;SDS011;4867;48.112;11.622;2022-12-18T01:28:58;49.53;;;29.27;;
9657;SDS011;4867;48.112;11.622;2022-12-18T01:31:27;54.40;;;31.83;;
9657;SDS011;4867;48.112;11.622;2022-12-18T01:33:56;48.53;;;30.87;;
9657;SDS011;4867;48.112;11.622;2022-12-18T01:36:25;53.93;;;30.77;;
9657;SDS011;4867;48.112;11.622;2022-12-18T01:38:55;54.27;;;31.27;;
9657;SDS011;4867;48.112;11.622;2022-12-18T01:41:23;52.37;;;30.57;;
9657;SDS011;4867;48.112;11.622;2022-12-18T01:43:53;48.53;;;30.50;;
9657;SDS011;4867;48.112;11.622;2022-12-18T01:46:26;52.23;;;31.63;;
9657;SDS011;4867;48.112;11.622;2022-12-18T01:48:56;50.90;;;31.33;;
9657;SDS011;4867;48.112;11.622;2022-12-18T01:51:29;54.50;;;32.03;;
9657;SDS011;4867;48.112;11.622;2022-12-18T01:53:57;50.80;;;31.57;;
9657;SDS011;4867;48.112;11.622;2022-12-18T01:56:26;53.33;;;31.87;;
9657;SDS011;4867;48.112;11.622;2022-12-18T01:58:55;53.00;;;31.73;;
9657;SDS011;4867;48.112;11.622;2022-12-18T02:01:31;55.07;;;33.20;;
9657;SDS011;4867;48.112;11.622;2022-12-18T02:04:18;53.40;;;31.23;;
9657;SDS011;4867;48.112;11.622;2022-12-18T02:09:48;56.20;;;32.83;;
9657;SDS011;4867;48.112;11.622;2022-12-18T02:12:20;58.67;;;34.07;;
9657;SDS011;4867;48.112;11.622;2022-12-18T02:15:00;54.10;;;31.77;;
9657;SDS011;4867;48.112;11.622;2022-12-18T02:17:37;51.83;;;32.40;;
9657;SDS011;4867;48.112;11.622;2022-12-18T02:29:05;48.73;;;30.60;;
9657;SDS011;4867;48.112;11.622;2022-12-18T02:31:40;51.87;;;31.77;;
9657;SDS011;4867;48.112;11.622;2022-12-18T02:34:11;53.90;;;33.20;;
9657;SDS011;4867;48.112;11.622;2022-12-18T02:37:00;54.63;;;33.73;;
9657;SDS011;4867;48.112;11.622;2022-12-18T02:39:32;53.83;;;33.23;;
9657;SDS011;4867;48.112;11.622;2022-12-18T02:42:03;57.03;;;35.53;;
9657;SDS011;4867;48.112;11.622;2022-12-18T02:44:35;61.87;;;34.30;;
9657;SDS011;4867;48.112;11.622;2022-12-18T02:47:14;59.03;;;35.00;;
9657;SDS011;4867;48.112;11.622;2022-12-18T03:03:40;55.00;;;32.90;;
9657;SDS011;4867;48.112;11.622;2022-12-18T03:06:32;59.40;;;34.17;;
9657;SDS011;4867;48.112;11.622;2022-12-18T03:09:10;56.17;;;33.40;;
9657;SDS011;4867;48.112;11.622;2022-12-18T03:11:42;56.57;;;32.77;;
9657;SDS011;4867;48.112;11.622;2022-12-18T03:14:33;57.00;;;32.70;;
9657;SDS011;4867;48.112;11.622;2022-12-18T03:17:04;58.97;;;34.30;;
9657;SDS011;4867;48.112;11.622;2022-12-18T03:19:35;56.00;;;32.90;;
9657;SDS011;4867;48.112;11.622;2022-12-18T03:22:04;55.30;;;33.10;;
9657;SDS011;4867;48.112;11.622;2022-12-18T03:24:42;54.67;;;34.20;;
9657;SDS011;4867;48.112;11.622;2022-12-18T03:27:13;56.43;;;33.73;;
9657;SDS011;4867;48.112;11.622;2022-12-18T03:29:46;55.23;;;33.20;;
9657;SDS011;4867;48.112;11.622;2022-12-18T03:32:29;59.10;;;33.47;;
9657;SDS011;4867;48.112;11.622;2022-12-18T03:35:03;54.67;;;33.90;;
9657;SDS011;4867;48.112;11.622;2022-12-18T03:37:35;53.43;;;32.33;;
9657;SDS011;4867;48.112;11.622;2022-12-18T03:40:03;53.47;;;33.00;;
9657;SDS011;4867;48.112;11.622;2022-12-18T03:45:18;52.90;;;32.73;;
9657;SDS011;4867;48.112;11.622;2022-12-18T03:48:17;52.77;;;33.10;;
9657;SDS011;4867;48.112;11.622;2022-12-18T03:53:35;57.10;;;34.97;;
9657;SDS011;4867;48.112;11.622;2022-12-18T03:56:22;54.17;;;33.07;;
9657;SDS011;4867;48.112;11.622;2022-12-18T03:58:54;51.67;;;32.27;;
9657;SDS011;4867;48.112;11.622;2022-12-18T04:01:30;53.17;;;32.70;;
9657;SDS011;4867;48.112;11.622;2022-12-18T04:04:01;54.37;;;32.73;;
9657;SDS011;4867;48.112;11.622;2022-12-18T04:06:33;47.93;;;29.97;;
9657;SDS011;4867;48.112;11.622;2022-12-18T04:09:01;50.90;;;31.03;;
9657;SDS011;4867;48.112;11.622;2022-12-18T04:11:31;52.97;;;32.20;;
9657;SDS011;4867;48.112;11.622;2022-12-18T04:14:02;50.97;;;31.60;;
9657;SDS011;4867;48.112;11.622;2022-12-18T04:16:33;50.20;;;31.83;;
9657;SDS011;4867;48.112;11.622;2022-12-18T04:19:03;49.93;;;31.43;;
9657;SDS011;4867;48.112;11.622;2022-12-18T04:21:37;52.77;;;32.70;;
9657;SDS011;4867;48.112;11.622;2022-12-18T04:24:05;48.27;;;30.53;;
9657;SDS011;4867;48.112;11.622;2022-12-18T04:26:35;50.33;;;31.90;;
9657;SDS011;4867;48.112;11.622;2022-12-18T04:29:15;47.17;;;29.50;;
9657;SDS011;4867;48.112;11.622;2022-12-18T04:31:42;46.07;;;29.70;;
9657;SDS011;4867;48.112;11.622;2022-12-18T04:34:10;44.53;;;29.40;;
9657;SDS011;4867;48.112;11.622;2022-12-18T04:36:43;49.23;;;30.13;;
9657;SDS011;4867;48.112;11.622;2022-12-18T04:39:12;45.53;;;29.80;;
9657;SDS011;4867;48.112;11.622;2022-12-18T04:41:40;50.17;;;30.33;;
9657;SDS011;4867;48.112;11.622;2022-12-18T04:44:09;45.80;;;27.83;;
9657;SDS011;4867;48.112;11.622;2022-12-18T04:46:37;41.90;;;26.13;;
9657;SDS011;4867;48.112;11.622;2022-12-18T04:49:04;46.00;;;29.13;;
9657;SDS011;4867;48.112;11.622;2022-12-18T04:51:31;42.13;;;27.33;;
9657;SDS011;4867;48.112;11.622;2022-12-18T04:53:59;43.57;;;27.80;;
9657;SDS011;4867;48.112;11.622;2022-12-18T04:56:26;40.50;;;26.20;;
9657;SDS011;4867;48.112;11.622;2022-12-18T04:58:54;47.13;;;28.50;;
9657;SDS011;4867;48.112;11.622;2022-12-18T05:01:21;45.10;;;28.40;;
9657;SDS011;4867;48.112;11.622;2022-12-18T05:03:48;42.57;;;27.67;;
9657;SDS011;4867;48.112;11.622;2022-12-18T05:06:17;43.90;;;28.37;;
9657;SDS011;4867;48.112;11.622;2022-12-18T05:08:44;39.27;;;26.23;;
9657;SDS011;4867;48.112;11.622;2022-12-18T05:11:13;40.87;;;26.93;;
9657;SDS011;4867;48.112;11.622;2022-12-18T05:13:43;40.53;;;25.83;;
9657;SDS011;4867;48.112;11.622;2022-12-18T05:16:11;42.13;;;27.33;;
9657;SDS011;4867;48.112;11.622;2022-12-18T05:18:39;44.83;;;27.67;;
9657;SDS011;4867;48.112;11.622;2022-12-18T05:21:06;42.47;;;27.37;;
9657;SDS011;4867;48.112;11.622;2022-12-18T05:23:33;42.23;;;27.60;;
9657;SDS011;4867;48.112;11.622;2022-12-18T05:26:03;40.47;;;26.70;;
9657;SDS011;4867;48.112;11.622;2022-12-18T05:28:32;44.97;;;29.20;;
9657;SDS011;4867;48.112;11.622;2022-12-18T05:31:02;42.57;;;27.90;;
9657;SDS011;4867;48.112;11.622;2022-12-18T05:33:31;43.20;;;27.13;;
9657;SDS011;4867;48.112;11.622;2022-12-18T05:36:00;40.83;;;28.00;;
9657;SDS011;4867;48.112;11.622;2022-12-18T05:38:29;39.60;;;25.83;;
9657;SDS011;4867;48.112;11.622;2022-12-18T05:40:57;42.80;;;27.53;;
9657;SDS011;4867;48.112;11.622;2022-12-18T05:43:25;36.67;;;23.70;;
9657;SDS011;4867;48.112;11.622;2022-12-18T05:45:53;41.77;;;27.73;;
9657;SDS011;4867;48.112;11.622;2022-12-18T05:48:22;44.57;;;27.10;;
9657;SDS011;4867;48.112;11.622;2022-12-18T05:50:49;42.73;;;26.63;;
9657;SDS011;4867;48.112;11.622;2022-12-18T05:53:18;37.30;;;24.77;;
9657;SDS011;4867;48.112;11.622;2022-12-18T05:55:47;40.50;;;25.80;;
9657;SDS011;4867;48.112;11.622;2022-12-18T05:58:15;39.63;;;25.87;;
9657;SDS011;4867;48.112;11.622;2022-12-18T06:00:43;40.47;;;26.50;;
9657;SDS011;4867;48.112;11.622;2022-12-18T06:03:12;40.40;;;25.93;;
9657;SDS011;4867;48.112;11.622;2022-12-18T06:05:41;41.93;;;27.10;;
9657;SDS011;4867;48.112;11.622;2022-12-18T06:08:11;41.27;;;26.50;;
9657;SDS011;4867;48.112;11.622;2022-12-18T06:10:40;38.70;;;26.50;;
9657;SDS011;4867;48.112;11.622;2022-12-18T06:13:08;44.60;;;27.77;;
9657;SDS011;4867;48.112;11.622;2022-12-18T06:15:36;41.97;;;26.67;;
9657;SDS011;4867;48.112;11.622;2022-12-18T06:18:04;40.17;;;26.27;;
9657;SDS011;4867;48.112;11.622;2022-12-18T06:20:31;38.80;;;26.07;;
9657;SDS011;4867;48.112;11.622;2022-12-18T06:22:59;36.90;;;24.00;;
9657;SDS011;4867;48.112;11.622;2022-12-18T06:25:27;38.87;;;25.13;;
9657;SDS011;4867;48.112;11.622;2022-12-18T06:27:54;38.37;;;24.50;;
9657;SDS011;4867;48.112;11.622;2022-12-18T06:30:21;42.00;;;26.37;;
9657;SDS011;4867;48.112;11.622;2022-12-18T06:32:49;41.07;;;26.67;;
9657;SDS011;4867;48.112;11.622;2022-12-18T06:35:22;45.20;;;26.33;;
9657;SDS011;4867;48.112;11.622;2022-12-18T06:37:50;42.50;;;26.30;;
9657;SDS011;4867;48.112;11.622;2022-12-18T06:40:18;39.97;;;25.33;;
9657;SDS011;4867;48.112;11.622;2022-12-18T06:42:45;40.63;;;26.07;;
9657;SDS011;4867;48.112;11.622;2022-12-18T06:45:12;40.53;;;25.80;;
9657;SDS011;4867;48.112;11.622;2022-12-18T06:47:40;39.33;;;24.53;;
9657;SDS011;4867;48.112;11.622;2022-12-18T06:50:07;36.50;;;25.07;;
9657;SDS011;4867;48.112;11.622;2022-12-18T06:52:34;37.13;;;25.07;;
9657;SDS011;4867;48.112;11.622;2022-12-18T06:55:01;40.73;;;25.87;;
9657;SDS011;4867;48.112;11.622;2022-12-18T06:57:29;40.27;;;25.53;;
9657;SDS011;4867;48.112;11.622;2022-12-18T06:59:56;42.40;;;27.40;;
9657;SDS011;4867;48.112;11.622;2022-12-18T07:02:23;37.63;;;25.30;;
9657;SDS011;4867;48.112;11.622;2022-12-18T07:04:51;39.93;;;24.97;;
9657;SDS011;4867;48.112;11.622;2022-12-18T07:07:18;38.83;;;24.83;;
9657;SDS011;4867;48.112;11.622;2022-12-18T07:09:45;39.60;;;26.57;;
9657;SDS011;4867;48.112;11.622;2022-12-18T07:12:12;37.67;;;25.50;;
9657;SDS011;4867;48.112;11.622;2022-12-18T07:14:39;38.97;;;26.90;;
9657;SDS011;4867;48.112;11.622;2022-12-18T07:17:07;41.87;;;26.23;;
9657;SDS011;4867;48.112;11.622;2022-12-18T07:19:34;35.27;;;23.43;;
9657;SDS011;4867;48.112;11.622;2022-12-18T07:22:01;35.63;;;24.73;;
9657;SDS011;4867;48.112;11.622;2022-12-18T07:24:30;37.97;;;25.43;;
9657;SDS011;4867;48.112;11.622;2022-12-18T07:26:58;37.87;;;26.17;;
9657;SDS011;4867;48.112;11.622;2022-12-18T07:29:26;41.17;;;26.20;;
9657;SDS011;4867;48.112;11.622;2022-12-18T07:31:53;42.87;;;26.47;;
9657;SDS011;4867;48.112;11.622;2022-12-18T07:34:20;39.60;;;26.17;;
9657;SDS011;4867;48.112;11.622;2022-12-18T07:36:47;38.93;;;24.77;;
9657;SDS011;4867;48.112;11.622;2022-12-18T07:39:14;43.43;;;26.50;;
9657;SDS011;4867;48.112;11.622;2022-12-18T07:41:42;35.97;;;23.90;;
9657;SDS011;4867;48.112;11.622;2022-12-18T07:44:15;36.47;;;24.67;;
9657;SDS011;4867;48.112;11.622;2022-12-18T07:46:42;36.47;;;23.93;;
9657;SDS011;4867;48.112;11.622;2022-12-18T07:49:09;38.03;;;24.33;;
9657;SDS011;4867;48.112;11.622;2022-12-18T07:51:36;38.47;;;25.73;;
9657;SDS011;4867;48.112;11.622;2022-12-18T07:54:04;36.20;;;23.70;;
9657;SDS011;4867;48.112;11.622;2022-12-18T07:56:31;38.37;;;22.97;;
9657;SDS011;4867;48.112;11.622;2022-12-18T07:58:58;37.47;;;24.77;;
9657;SDS011;4867;48.112;11.622;2022-12-18T08:01:29;40.80;;;25.70;;
9657;SDS011;4867;48.112;11.622;2022-12-18T08:03:57;37.23;;;24.13;;
9657;SDS011;4867;48.112;11.622;2022-12-18T08:06:25;37.03;;;24.80;;
9657;SDS011;4867;48.112;11.622;2022-12-18T08:08:52;34.40;;;23.53;;
9657;SDS011;4867;48.112;11.622;2022-12-18T08:11:21;36.07;;;23.93;;
9657;SDS011;4867;48.112;11.622;2022-12-18T08:13:49;36.50;;;23.67;;
9657;SDS011;4867;48.112;11.622;2022-12-18T08:16:17;36.37;;;23.73;;
9657;SDS011;4867;48.112;11.622;2022-12-18T08:18:45;36.00;;;23.40;;
9657;SDS011;4867;48.112;11.622;2022-12-18T08:21:16;35.30;;;23.77;;
9657;SDS011;4867;48.112;11.622;2022-12-18T08:23:47;33.47;;;22.10;;
9657;SDS011;4867;48.112;11.622;2022-12-18T08:26:16;34.60;;;23.47;;
9657;SDS011;4867;48.112;11.622;2022-12-18T08:28:44;36.97;;;23.43;;
9657;SDS011;4867;48.112;11.622;2022-12-18T08:31:12;39.67;;;27.57;;
9657;SDS011;4867;48.112;11.622;2022-12-18T08:33:40;35.70;;;23.60;;
9657;SDS011;4867;48.112;11.622;2022-12-18T08:36:08;34.63;;;21.90;;
9657;SDS011;4867;48.112;11.622;2022-12-18T08:38:36;34.03;;;21.40;;
9657;SDS011;4867;48.112;11.622;2022-12-18T08:41:07;32.37;;;21.80;;
9657;SDS011;4867;48.112;11.622;2022-12-18T08:43:36;33.97;;;22.97;;
9657;SDS011;4867;48.112;11.622;2022-12-18T08:46:23;33.83;;;22.43;;
9657;SDS011;4867;48.112;11.622;2022-12-18T08:48:53;32.97;;;21.43;;
9657;SDS011;4867;48.112;11.622;2022-12-18T08:51:21;30.83;;;20.67;;
9657;SDS011;4867;48.112;11.622;2022-12-18T08:53:49;31.30;;;21.53;;
9657;SDS011;4867;48.112;11.622;2022-12-18T08:56:16;32.47;;;20.97;;
9657;SDS011;4867;48.112;11.622;2022-12-18T08:58:43;31.23;;;21.77;;
9657;SDS011;4867;48.112;11.622;2022-12-18T09:01:11;34.17;;;21.97;;
9657;SDS011;4867;48.112;11.622;2022-12-18T09:03:40;33.80;;;20.73;;
9657;SDS011;4867;48.112;11.622;2022-12-18T09:06:08;31.43;;;21.30;;
9657;SDS011;4867;48.112;11.622;2022-12-18T09:08:35;32.20;;;22.10;;
9657;SDS011;4867;48.112;11.622;2022-12-18T09:11:10;30.33;;;20.63;;
9657;SDS011;4867;48.112;11.622;2022-12-18T09:13:46;32.83;;;22.10;;
9657;SDS011;4867;48.112;11.622;2022-12-18T09:16:13;35.47;;;23.00;;
9657;SDS011;4867;48.112;11.622;2022-12-18T09:18:40;33.17;;;21.97;;
9657;SDS011;4867;48.112;11.622;2022-12-18T09:21:12;30.70;;;21.60;;
9657;SDS011;4867;48.112;11.622;2022-12-18T09:23:41;32.17;;;21.60;;
9657;SDS011;4867;48.112;11.622;2022-12-18T09:26:09;30.90;;;20.97;;
9657;SDS011;4867;48.112;11.622;2022-12-18T09:28:37;29.63;;;21.47;;
9657;SDS011;4867;48.112;11.622;2022-12-18T09:31:06;31.27;;;21.57;;
9657;SDS011;4867;48.112;11.622;2022-12-18T09:33:35;33.57;;;21.73;;
9657;SDS011;4867;48.112;11.622;2022-12-18T09:36:03;32.30;;;22.23;;
9657;SDS011;4867;48.112;11.622;2022-12-18T09:38:33;31.53;;;22.53;;
9657;SDS011;4867;48.112;11.622;2022-12-18T09:43:50;33.00;;;22.47;;
9657;SDS011;4867;48.112;11.622;2022-12-18T09:46:26;33.03;;;22.90;;
9657;SDS011;4867;48.112;11.622;2022-12-18T09:49:01;33.10;;;22.17;;
9657;SDS011;4867;48.112;11.622;2022-12-18T09:51:33;32.40;;;21.40;;
9657;SDS011;4867;48.112;11.622;2022-12-18T09:54:11;31.40;;;21.00;;
9657;SDS011;4867;48.112;11.622;2022-12-18T09:56:43;31.60;;;22.07;;
9657;SDS011;4867;48.112;11.622;2022-12-18T09:59:18;32.93;;;21.87;;
9657;SDS011;4867;48.112;11.622;2022-12-18T10:01:59;31.23;;;21.37;;
9657;SDS011;4867;48.112;11.622;2022-12-18T10:04:32;28.37;;;20.60;;
9657;SDS011;4867;48.112;11.622;2022-12-18T10:13:02;30.97;;;21.07;;
9657;SDS011;4867;48.112;11.622;2022-12-18T10:15:39;30.90;;;20.90;;
9657;SDS011;4867;48.112;11.622;2022-12-18T10:21:08;29.83;;;21.27;;
9657;SDS011;4867;48.112;11.622;2022-12-18T10:26:17;35.47;;;22.33;;
9657;SDS011;4867;48.112;11.622;2022-12-18T10:28:45;35.37;;;23.77;;
9657;SDS011;4867;48.112;11.622;2022-12-18T10:31:14;28.50;;;20.63;;
9657;SDS011;4867;48.112;11.622;2022-12-18T10:33:44;28.90;;;20.37;;
9657;SDS011;4867;48.112;11.622;2022-12-18T10:36:12;27.77;;;19.90;;
9657;SDS011;4867;48.112;11.622;2022-12-18T10:38:39;31.53;;;21.07;;
9657;SDS011;4867;48.112;11.622;2022-12-18T10:43:51;30.03;;;20.77;;
9657;SDS011;4867;48.112;11.622;2022-12-18T10:46:43;27.23;;;19.03;;
9657;SDS011;4867;48.112;11.622;2022-12-18T10:49:47;30.87;;;20.97;;
9657;SDS011;4867;48.112;11.622;2022-12-18T10:52:15;32.17;;;20.90;;
9657;SDS011;4867;48.112;11.622;2022-12-18T10:54:47;30.07;;;21.10;;
9657;SDS011;4867;48.112;11.622;2022-12-18T10:59:53;29.47;;;20.13;;
9657;SDS011;4867;48.112;11.622;2022-12-18T11:02:26;29.47;;;19.73;;
9657;SDS011;4867;48.112;11.622;2022-12-18T11:04:55;27.87;;;19.67;;
9657;SDS011;4867;48.112;11.622;2022-12-18T11:07:29;29.33;;;20.30;;
9657;SDS011;4867;48.112;11.622;2022-12-18T11:10:19;30.43;;;20.40;;
9657;SDS011;4867;48.112;11.622;2022-12-18T11:12:48;28.17;;;19.57;;
9657;SDS011;4867;48.112;11.622;2022-12-18T11:15:19;28.70;;;19.50;;
9657;SDS011;4867;48.112;11.622;2022-12-18T11:17:48;28.07;;;19.20;;
9657;SDS011;4867;48.112;11.622;2022-12-18T11:20:31;26.93;;;18.63;;
9657;SDS011;4867;48.112;11.622;2022-12-18T11:23:01;28.97;;;19.50;;
9657;SDS011;4867;48.112;11.622;2022-12-18T11:25:33;30.40;;;21.40;;
9657;SDS011;4867;48.112;11.622;2022-12-18T11:28:06;29.67;;;20.37;;
9657;SDS011;4867;48.112;11.622;2022-12-18T11:31:11;28.33;;;19.23;;
9657;SDS011;4867;48.112;11.622;2022-12-18T11:36:46;29.37;;;20.03;;
9657;SDS011;4867;48.112;11.622;2022-12-18T11:39:31;30.23;;;20.57;;
9657;SDS011;4867;48.112;11.622;2022-12-18T11:50:33;30.43;;;20.23;;
9657;SDS011;4867;48.112;11.622;2022-12-18T11:53:03;28.07;;;19.83;;
9657;SDS011;4867;48.112;11.622;2022-12-18T11:58:43;31.07;;;21.70;;
9657;SDS011;4867;48.112;11.622;2022-12-18T12:12:35;28.60;;;20.17;;
9657;SDS011;4867;48.112;11.622;2022-12-18T12:18:15;29.63;;;20.40;;
9657;SDS011;4867;48.112;11.622;2022-12-18T12:21:00;30.97;;;21.43;;
9657;SDS011;4867;48.112;11.622;2022-12-18T12:32:36;30.57;;;21.27;;
9657;SDS011;4867;48.112;11.622;2022-12-18T12:37:48;28.00;;;19.13;;
9657;SDS011;4867;48.112;11.622;2022-12-18T12:40:29;27.00;;;17.80;;
9657;SDS011;4867;48.112;11.622;2022-12-18T12:46:17;27.83;;;18.87;;
9657;SDS011;4867;48.112;11.622;2022-12-18T12:48:52;33.30;;;19.73;;
9657;SDS011;4867;48.112;11.622;2022-12-18T12:51:34;29.60;;;18.63;;
9657;SDS011;4867;48.112;11.622;2022-12-18T12:54:04;28.73;;;19.10;;
9657;SDS011;4867;48.112;11.622;2022-12-18T12:56:46;27.83;;;19.30;;
9657;SDS011;4867;48.112;11.622;2022-12-18T13:02:24;29.97;;;19.80;;
9657;SDS011;4867;48.112;11.622;2022-12-18T13:10:34;34.33;;;21.83;;
9657;SDS011;4867;48.112;11.622;2022-12-18T13:13:08;33.20;;;21.33;;
9657;SDS011;4867;48.112;11.622;2022-12-18T13:20:46;28.50;;;19.10;;
9657;SDS011;4867;48.112;11.622;2022-12-18T13:23:30;29.60;;;19.93;;
9657;SDS011;4867;48.112;11.622;2022-12-18T13:31:15;31.20;;;20.07;;
9657;SDS011;4867;48.112;11.622;2022-12-18T13:36:54;31.80;;;20.97;;
9657;SDS011;4867;48.112;11.622;2022-12-18T13:39:43;32.73;;;21.27;;
9657;SDS011;4867;48.112;11.622;2022-12-18T13:45:01;31.53;;;21.60;;
9657;SDS011;4867;48.112;11.622;2022-12-18T13:47:48;32.57;;;22.50;;
9657;SDS011;4867;48.112;11.622;2022-12-18T13:50:21;32.13;;;21.37;;
9657;SDS011;4867;48.112;11.622;2022-12-18T13:52:58;33.77;;;23.73;;
9657;SDS011;4867;48.112;11.622;2022-12-18T13:55:25;33.57;;;22.73;;
9657;SDS011;4867;48.112;11.622;2022-12-18T13:58:02;35.03;;;22.87;;
9657;SDS011;4867;48.112;11.622;2022-12-18T14:00:31;32.67;;;21.90;;
9657;SDS011;4867;48.112;11.622;2022-12-18T14:02:58;33.87;;;22.30;;
9657;SDS011;4867;48.112;11.622;2022-12-18T14:05:27;30.77;;;20.90;;
9657;SDS011;4867;48.112;11.622;2022-12-18T14:08:08;30.97;;;21.40;;
9657;SDS011;4867;48.112;11.622;2022-12-18T14:10:45;31.23;;;20.87;;
9657;SDS011;4867;48.112;11.622;2022-12-18T14:13:32;32.10;;;21.33;;
9657;SDS011;4867;48.112;11.622;2022-12-18T14:16:05;32.57;;;20.80;;
9657;SDS011;4867;48.112;11.622;2022-12-18T14:21:20;28.30;;;19.90;;
9657;SDS011;4867;48.112;11.622;2022-12-18T14:26:45;30.90;;;20.53;;
9657;SDS011;4867;48.112;11.622;2022-12-18T14:29:29;31.97;;;22.67;;
9657;SDS011;4867;48.112;11.622;2022-12-18T14:32:04;31.53;;;21.80;;
9657;SDS011;4867;48.112;11.622;2022-12-18T14:34:44;33.50;;;22.07;;
9657;SDS011;4867;48.112;11.622;2022-12-18T14:37:17;31.70;;;21.43;;
9657;SDS011;4867;48.112;11.622;2022-12-18T14:39:58;35.47;;;23.07;;
9657;SDS011;4867;48.112;11.622;2022-12-18T14:42:36;35.43;;;22.50;;
9657;SDS011;4867;48.112;11.622;2022-12-18T14:48:09;31.67;;;21.43;;
9657;SDS011;4867;48.112;11.622;2022-12-18T14:51:33;34.70;;;22.17;;
9657;SDS011;4867;48.112;11.622;2022-12-18T14:53:42;34.13;;;23.13;;
9657;SDS011;4867;48.112;11.622;2022-12-18T14:56:23;33.40;;;22.87;;
9657;SDS011;4867;48.112;11.622;2022-12-18T14:58:56;33.30;;;20.83;;
9657;SDS011;4867;48.112;11.622;2022-12-18T15:01:34;34.27;;;22.10;;
9657;SDS011;4867;48.112;11.622;2022-12-18T15:04:02;29.47;;;19.67;;
9657;SDS011;4867;48.112;11.622;2022-12-18T15:06:36;30.57;;;20.40;;
9657;SDS011;4867;48.112;11.622;2022-12-18T15:09:20;38.80;;;28.00;;
9657;SDS011;4867;48.112;11.622;2022-12-18T15:11:54;30.63;;;20.90;;
9657;SDS011;4867;48.112;11.622;2022-12-18T15:17:21;30.00;;;21.23;;
9657;SDS011;4867;48.112;11.622;2022-12-18T15:19:53;30.70;;;21.07;;
9657;SDS011;4867;48.112;11.622;2022-12-18T15:22:30;42.10;;;28.17;;
9657;SDS011;4867;48.112;11.622;2022-12-18T15:25:01;39.93;;;29.27;;
9657;SDS011;4867;48.112;11.622;2022-12-18T15:27:34;35.93;;;23.57;;
9657;SDS011;4867;48.112;11.622;2022-12-18T15:32:36;34.03;;;22.90;;
9657;SDS011;4867;48.112;11.622;2022-12-18T15:37:35;34.23;;;24.03;;
9657;SDS011;4867;48.112;11.622;2022-12-18T15:40:02;36.30;;;24.10;;
9657;SDS011;4867;48.112;11.622;2022-12-18T15:42:30;40.93;;;24.33;;
9657;SDS011;4867;48.112;11.622;2022-12-18T15:45:16;36.93;;;23.60;;
9657;SDS011;4867;48.112;11.622;2022-12-18T15:47:44;34.03;;;23.30;;
9657;SDS011;4867;48.112;11.622;2022-12-18T15:50:12;36.10;;;23.40;;
9657;SDS011;4867;48.112;11.622;2022-12-18T15:52:40;34.33;;;23.87;;
9657;SDS011;4867;48.112;11.622;2022-12-18T15:55:19;35.13;;;23.17;;
9657;SDS011;4867;48.112;11.622;2022-12-18T15:58:08;43.23;;;26.33;;
9657;SDS011;4867;48.112;11.622;2022-12-18T16:00:37;33.10;;;22.57;;
9657;SDS011;4867;48.112;11.622;2022-12-18T16:03:06;35.00;;;22.87;;
9657;SDS011;4867;48.112;11.622;2022-12-18T16:05:34;34.30;;;22.90;;
9657;SDS011;4867;48.112;11.622;2022-12-18T16:08:02;38.70;;;24.20;;
9657;SDS011;4867;48.112;11.622;2022-12-18T16:10:29;37.37;;;24.80;;
9657;SDS011;4867;48.112;11.622;2022-12-18T16:12:57;36.87;;;22.77;;
9657;SDS011;4867;48.112;11.622;2022-12-18T16:15:24;38.03;;;24.17;;
9657;SDS011;4867;48.112;11.622;2022-12-18T16:17:51;39.93;;;24.30;;
9657;SDS011;4867;48.112;11.622;2022-12-18T16:20:19;36.93;;;25.07;;
9657;SDS011;4867;48.112;11.622;2022-12-18T16:22:48;43.40;;;28.67;;
9657;SDS011;4867;48.112;11.622;2022-12-18T16:27:45;38.23;;;26.10;;
9657;SDS011;4867;48.112;11.622;2022-12-18T16:30:18;36.13;;;25.03;;
9657;SDS011;4867;48.112;11.622;2022-12-18T16:32:47;43.33;;;26.13;;
9657;SDS011;4867;48.112;11.622;2022-12-18T16:35:14;40.93;;;26.50;;
9657;SDS011;4867;48.112;11.622;2022-12-18T16:37:43;40.67;;;27.20;;
9657;SDS011;4867;48.112;11.622;2022-12-18T16:40:11;38.70;;;27.10;;
9657;SDS011;4867;48.112;11.622;2022-12-18T16:42:41;43.77;;;27.17;;
9657;SDS011;4867;48.112;11.622;2022-12-18T16:45:10;40.27;;;27.40;;
9657;SDS011;4867;48.112;11.622;2022-12-18T16:47:40;45.03;;;27.90;;
9657;SDS011;4867;48.112;11.622;2022-12-18T16:50:08;42.13;;;26.43;;
9657;SDS011;4867;48.112;11.622;2022-12-18T16:52:36;40.80;;;26.23;;
9657;SDS011;4867;48.112;11.622;2022-12-18T16:55:04;43.20;;;28.93;;
9657;SDS011;4867;48.112;11.622;2022-12-18T16:57:31;40.47;;;28.57;;
9657;SDS011;4867;48.112;11.622;2022-12-18T16:59:59;38.30;;;25.43;;
9657;SDS011;4867;48.112;11.622;2022-12-18T17:02:31;35.97;;;24.97;;
9657;SDS011;4867;48.112;11.622;2022-12-18T17:04:59;39.83;;;26.10;;
9657;SDS011;4867;48.112;11.622;2022-12-18T17:07:27;37.27;;;25.30;;
9657;SDS011;4867;48.112;11.622;2022-12-18T17:09:54;36.30;;;24.63;;
9657;SDS011;4867;48.112;11.622;2022-12-18T17:12:22;41.93;;;25.37;;
9657;SDS011;4867;48.112;11.622;2022-12-18T17:14:49;39.00;;;25.93;;
9657;SDS011;4867;48.112;11.622;2022-12-18T17:17:16;40.97;;;26.60;;